sensor_id;sensor_type;location;lat;lon;timestamp;temperature;humidity
21284;DHT22;44065;43.150;23.652;2022-07-23T00:00:54;18.70;99.90
21284;DHT22;44065;43.150;23.652;2022-07-23T00:03:20;18.50;99.90
21284;DHT22;44065;43.150;23.652;2022-07-23T00:05:46;18.60;99.90
21284;DHT22;44065;43.150;23.652;2022-07-23T00:08:11;18.60;99.90
21284;DHT22;44065;43.150;23.652;2022-07-23T00:10:37;18.50;99.90
21284;DHT22;44065;43.150;23.652;2022-07-23T00:13:04;18.50;99.90
21284;DHT22;44065;43.150;23.652;2022-07-23T00:15:30;18.40;99.90
21284;DHT22;44065;43.150;23.652;2022-07-23T00:17:56;18.40;99.90
21284;DHT22;44065;43.150;23.652;2022-07-23T00:20:21;18.30;99.90
21284;DHT22;44065;43.150;23.652;2022-07-23T00:22:52;18.30;99.90
21284;DHT22;44065;43.150;23.652;2022-07-23T00:25:18;17.90;99.90
21284;DHT22;44065;43.150;23.652;2022-07-23T00:27:44;18.10;99.90
21284;DHT22;44065;43.150;23.652;2022-07-23T00:30:11;17.70;99.90
21284;DHT22;44065;43.150;23.652;2022-07-23T00:32:54;18.20;99.90
21284;DHT22;44065;43.150;23.652;2022-07-23T00:35:26;18.50;99.90
21284;DHT22;44065;43.150;23.652;2022-07-23T00:37:52;17.90;99.90
21284;DHT22;44065;43.150;23.652;2022-07-23T00:40:18;18.40;99.90
21284;DHT22;44065;43.150;23.652;2022-07-23T00:42:44;18.30;99.90
21284;DHT22;44065;43.150;23.652;2022-07-23T00:45:10;17.80;99.90
21284;DHT22;44065;43.150;23.652;2022-07-23T00:47:37;18.10;99.90
21284;DHT22;44065;43.150;23.652;2022-07-23T00:50:04;17.90;99.90
21284;DHT22;44065;43.150;23.652;2022-07-23T00:52:31;17.70;99.90
21284;DHT22;44065;43.150;23.652;2022-07-23T00:54:57;17.50;99.90
21284;DHT22;44065;43.150;23.652;2022-07-23T00:57:24;17.60;99.90
21284;DHT22;44065;43.150;23.652;2022-07-23T00:59:49;18.20;99.90
21284;DHT22;44065;43.150;23.652;2022-07-23T01:09:34;18.20;99.90
21284;DHT22;44065;43.150;23.652;2022-07-23T01:12:00;18.00;99.90
21284;DHT22;44065;43.150;23.652;2022-07-23T01:14:26;17.80;99.90
21284;DHT22;44065;43.150;23.652;2022-07-23T01:16:52;17.70;99.90
21284;DHT22;44065;43.150;23.652;2022-07-23T01:19:18;17.70;99.90
21284;DHT22;44065;43.150;23.652;2022-07-23T01:21:49;17.20;99.90
21284;DHT22;44065;43.150;23.652;2022-07-23T01:24:16;17.70;99.90
21284;DHT22;44065;43.150;23.652;2022-07-23T01:31:36;17.30;99.90
21284;DHT22;44065;43.150;23.652;2022-07-23T01:34:02;18.00;99.90
21284;DHT22;44065;43.150;23.652;2022-07-23T01:36:29;17.70;99.90
21284;DHT22;44065;43.150;23.652;2022-07-23T01:43:48;17.80;99.90
21284;DHT22;44065;43.150;23.652;2022-07-23T01:46:14;17.90;99.90
21284;DHT22;44065;43.150;23.652;2022-07-23T01:48:40;17.60;99.90
21284;DHT22;44065;43.150;23.652;2022-07-23T01:51:05;17.60;99.90
21284;DHT22;44065;43.150;23.652;2022-07-23T01:53:31;17.50;99.90
21284;DHT22;44065;43.150;23.652;2022-07-23T01:55:58;17.50;99.90
21284;DHT22;44065;43.150;23.652;2022-07-23T01:58:25;17.20;99.90
21284;DHT22;44065;43.150;23.652;2022-07-23T02:05:43;17.70;99.90
21284;DHT22;44065;43.150;23.652;2022-07-23T02:08:09;16.80;99.90
21284;DHT22;44065;43.150;23.652;2022-07-23T02:10:35;17.90;99.90
21284;DHT22;44065;43.150;23.652;2022-07-23T02:32:32;17.10;99.90
21284;DHT22;44065;43.150;23.652;2022-07-23T02:47:11;17.00;99.90
21284;DHT22;44065;43.150;23.652;2022-07-23T02:54:32;16.60;99.90
21284;DHT22;44065;43.150;23.652;2022-07-23T02:59:24;16.80;99.90
21284;DHT22;44065;43.150;23.652;2022-07-23T03:01:50;17.20;99.90
21284;DHT22;44065;43.150;23.652;2022-07-23T03:04:16;17.10;99.90
21284;DHT22;44065;43.150;23.652;2022-07-23T03:06:43;16.70;99.90
21284;DHT22;44065;43.150;23.652;2022-07-23T03:09:08;16.70;99.90
21284;DHT22;44065;43.150;23.652;2022-07-23T03:11:35;17.10;99.90
21284;DHT22;44065;43.150;23.652;2022-07-23T03:14:00;16.30;99.90
21284;DHT22;44065;43.150;23.652;2022-07-23T03:18:52;16.80;99.90
21284;DHT22;44065;43.150;23.652;2022-07-23T03:21:19;17.10;99.90
21284;DHT22;44065;43.150;23.652;2022-07-23T03:23:44;17.00;99.90
21284;DHT22;44065;43.150;23.652;2022-07-23T03:43:13;17.20;99.90
21284;DHT22;44065;43.150;23.652;2022-07-23T03:45:39;17.90;99.90
21284;DHT22;44065;43.150;23.652;2022-07-23T04:17:20;20.50;99.90
21284;DHT22;44065;43.150;23.652;2022-07-23T04:19:46;20.80;99.90
21284;DHT22;44065;43.150;23.652;2022-07-23T04:22:12;22.10;99.90
21284;DHT22;44065;43.150;23.652;2022-07-23T04:24:38;25.00;99.90
21284;DHT22;44065;43.150;23.652;2022-07-23T04:27:05;24.90;99.90
21284;DHT22;44065;43.150;23.652;2022-07-23T04:29:31;26.20;99.90
21284;DHT22;44065;43.150;23.652;2022-07-23T04:31:57;28.00;99.90
21284;DHT22;44065;43.150;23.652;2022-07-23T04:34:23;27.90;99.90
21284;DHT22;44065;43.150;23.652;2022-07-23T04:36:49;28.70;99.90
21284;DHT22;44065;43.150;23.652;2022-07-23T04:39:15;29.30;97.50
21284;DHT22;44065;43.150;23.652;2022-07-23T04:41:41;29.70;99.90
21284;DHT22;44065;43.150;23.652;2022-07-23T04:44:07;29.90;95.30
21284;DHT22;44065;43.150;23.652;2022-07-23T04:46:33;30.70;92.40
21284;DHT22;44065;43.150;23.652;2022-07-23T04:48:59;31.40;99.90
21284;DHT22;44065;43.150;23.652;2022-07-23T04:51:24;31.30;91.00
21284;DHT22;44065;43.150;23.652;2022-07-23T04:53:50;31.50;89.80
21284;DHT22;44065;43.150;23.652;2022-07-23T04:56:16;32.00;88.80
21284;DHT22;44065;43.150;23.652;2022-07-23T04:58:42;32.60;87.20
21284;DHT22;44065;43.150;23.652;2022-07-23T05:01:08;33.00;85.00
21284;DHT22;44065;43.150;23.652;2022-07-23T05:03:34;33.40;83.40
21284;DHT22;44065;43.150;23.652;2022-07-23T05:06:00;33.70;82.80
21284;DHT22;44065;43.150;23.652;2022-07-23T05:08:26;34.50;79.30
21284;DHT22;44065;43.150;23.652;2022-07-23T05:10:52;34.70;78.60
21284;DHT22;44065;43.150;23.652;2022-07-23T05:13:18;35.50;76.60
21284;DHT22;44065;43.150;23.652;2022-07-23T05:15:45;35.70;90.50
21284;DHT22;44065;43.150;23.652;2022-07-23T05:18:11;36.00;90.70
21284;DHT22;44065;43.150;23.652;2022-07-23T05:20:37;35.80;74.00
21284;DHT22;44065;43.150;23.652;2022-07-23T05:23:03;35.70;73.90
21284;DHT22;44065;43.150;23.652;2022-07-23T05:25:29;36.40;71.60
21284;DHT22;44065;43.150;23.652;2022-07-23T05:27:55;36.60;72.10
21284;DHT22;44065;43.150;23.652;2022-07-23T05:30:21;36.80;70.50
21284;DHT22;44065;43.150;23.652;2022-07-23T05:32:47;36.20;70.40
21284;DHT22;44065;43.150;23.652;2022-07-23T05:35:13;35.20;70.90
21284;DHT22;44065;43.150;23.652;2022-07-23T05:37:38;33.40;73.70
21284;DHT22;44065;43.150;23.652;2022-07-23T05:40:06;31.80;77.30
21284;DHT22;44065;43.150;23.652;2022-07-23T05:42:36;30.50;79.60
21284;DHT22;44065;43.150;23.652;2022-07-23T05:45:03;29.30;82.20
21284;DHT22;44065;43.150;23.652;2022-07-23T05:47:38;28.50;83.70
21284;DHT22;44065;43.150;23.652;2022-07-23T05:50:04;27.80;84.70
21284;DHT22;44065;43.150;23.652;2022-07-23T05:52:30;27.30;86.50
21284;DHT22;44065;43.150;23.652;2022-07-23T05:54:56;26.90;88.20
21284;DHT22;44065;43.150;23.652;2022-07-23T05:57:22;26.80;89.30
21284;DHT22;44065;43.150;23.652;2022-07-23T05:59:47;26.90;88.60
21284;DHT22;44065;43.150;23.652;2022-07-23T06:02:13;26.80;89.40
21284;DHT22;44065;43.150;23.652;2022-07-23T06:04:39;26.90;89.30
21284;DHT22;44065;43.150;23.652;2022-07-23T06:07:05;27.00;88.40
21284;DHT22;44065;43.150;23.652;2022-07-23T06:09:31;27.10;88.30
21284;DHT22;44065;43.150;23.652;2022-07-23T06:11:56;27.20;88.80
21284;DHT22;44065;43.150;23.652;2022-07-23T06:14:22;27.20;88.30
21284;DHT22;44065;43.150;23.652;2022-07-23T06:16:48;27.30;88.30
21284;DHT22;44065;43.150;23.652;2022-07-23T06:19:14;27.40;90.10
21284;DHT22;44065;43.150;23.652;2022-07-23T06:21:40;27.40;89.30
21284;DHT22;44065;43.150;23.652;2022-07-23T06:24:06;27.40;90.10
21284;DHT22;44065;43.150;23.652;2022-07-23T06:26:32;27.40;89.70
21284;DHT22;44065;43.150;23.652;2022-07-23T06:28:57;27.40;88.70
21284;DHT22;44065;43.150;23.652;2022-07-23T06:31:23;27.40;89.10
21284;DHT22;44065;43.150;23.652;2022-07-23T06:33:49;27.50;89.50
21284;DHT22;44065;43.150;23.652;2022-07-23T06:36:15;27.50;87.10
21284;DHT22;44065;43.150;23.652;2022-07-23T06:38:41;27.50;86.10
21284;DHT22;44065;43.150;23.652;2022-07-23T06:41:07;27.50;85.90
21284;DHT22;44065;43.150;23.652;2022-07-23T06:43:33;27.50;86.20
21284;DHT22;44065;43.150;23.652;2022-07-23T06:45:58;27.70;85.40
21284;DHT22;44065;43.150;23.652;2022-07-23T06:48:24;27.80;85.60
21284;DHT22;44065;43.150;23.652;2022-07-23T06:50:50;27.80;85.10
21284;DHT22;44065;43.150;23.652;2022-07-23T06:53:18;27.80;86.20
21284;DHT22;44065;43.150;23.652;2022-07-23T06:55:44;27.90;87.50
21284;DHT22;44065;43.150;23.652;2022-07-23T06:58:09;28.00;90.00
21284;DHT22;44065;43.150;23.652;2022-07-23T07:00:36;28.10;90.10
21284;DHT22;44065;43.150;23.652;2022-07-23T07:03:02;28.20;90.90
21284;DHT22;44065;43.150;23.652;2022-07-23T07:05:27;28.40;90.90
21284;DHT22;44065;43.150;23.652;2022-07-23T07:07:54;28.60;90.00
21284;DHT22;44065;43.150;23.652;2022-07-23T07:10:21;28.70;88.70
21284;DHT22;44065;43.150;23.652;2022-07-23T07:12:47;28.70;87.30
21284;DHT22;44065;43.150;23.652;2022-07-23T07:15:13;28.80;87.50
21284;DHT22;44065;43.150;23.652;2022-07-23T07:17:39;28.90;87.00
21284;DHT22;44065;43.150;23.652;2022-07-23T07:20:06;29.00;87.80
21284;DHT22;44065;43.150;23.652;2022-07-23T07:22:32;29.10;87.30
21284;DHT22;44065;43.150;23.652;2022-07-23T07:24:57;29.30;87.90
21284;DHT22;44065;43.150;23.652;2022-07-23T07:27:23;29.50;87.50
21284;DHT22;44065;43.150;23.652;2022-07-23T07:29:49;29.60;86.00
21284;DHT22;44065;43.150;23.652;2022-07-23T07:32:15;29.70;85.70
21284;DHT22;44065;43.150;23.652;2022-07-23T07:34:41;29.80;86.80
21284;DHT22;44065;43.150;23.652;2022-07-23T07:37:07;29.90;86.30
21284;DHT22;44065;43.150;23.652;2022-07-23T07:39:33;30.10;85.50
21284;DHT22;44065;43.150;23.652;2022-07-23T07:41:58;30.10;85.20
21284;DHT22;44065;43.150;23.652;2022-07-23T07:44:24;30.20;84.90
21284;DHT22;44065;43.150;23.652;2022-07-23T07:46:50;30.30;85.10
21284;DHT22;44065;43.150;23.652;2022-07-23T07:49:16;30.30;84.60
21284;DHT22;44065;43.150;23.652;2022-07-23T07:51:45;30.50;83.80
21284;DHT22;44065;43.150;23.652;2022-07-23T07:54:12;30.50;83.70
21284;DHT22;44065;43.150;23.652;2022-07-23T07:56:38;30.60;82.70
21284;DHT22;44065;43.150;23.652;2022-07-23T07:59:03;30.70;83.50
21284;DHT22;44065;43.150;23.652;2022-07-23T08:01:29;30.80;83.80
21284;DHT22;44065;43.150;23.652;2022-07-23T08:03:56;31.00;83.00
21284;DHT22;44065;43.150;23.652;2022-07-23T08:06:22;31.10;81.90
21284;DHT22;44065;43.150;23.652;2022-07-23T08:08:48;31.40;82.00
21284;DHT22;44065;43.150;23.652;2022-07-23T08:11:14;31.50;80.70
21284;DHT22;44065;43.150;23.652;2022-07-23T08:13:40;31.70;77.30
21284;DHT22;44065;43.150;23.652;2022-07-23T08:16:06;31.80;78.50
21284;DHT22;44065;43.150;23.652;2022-07-23T08:18:32;31.90;78.70
21284;DHT22;44065;43.150;23.652;2022-07-23T08:20:58;32.00;77.90
21284;DHT22;44065;43.150;23.652;2022-07-23T08:23:24;32.20;76.50
21284;DHT22;44065;43.150;23.652;2022-07-23T08:25:50;32.20;74.60
21284;DHT22;44065;43.150;23.652;2022-07-23T08:28:16;32.30;72.40
21284;DHT22;44065;43.150;23.652;2022-07-23T08:30:43;32.40;73.80
21284;DHT22;44065;43.150;23.652;2022-07-23T08:33:14;32.60;72.10
21284;DHT22;44065;43.150;23.652;2022-07-23T08:35:46;32.70;71.70
21284;DHT22;44065;43.150;23.652;2022-07-23T08:38:14;32.90;71.20
21284;DHT22;44065;43.150;23.652;2022-07-23T08:40:43;33.10;71.40
21284;DHT22;44065;43.150;23.652;2022-07-23T08:43:15;33.20;70.10
21284;DHT22;44065;43.150;23.652;2022-07-23T08:45:45;33.30;70.30
21284;DHT22;44065;43.150;23.652;2022-07-23T08:48:19;33.40;68.20
21284;DHT22;44065;43.150;23.652;2022-07-23T08:50:57;33.40;67.00
21284;DHT22;44065;43.150;23.652;2022-07-23T08:53:24;33.50;63.40
21284;DHT22;44065;43.150;23.652;2022-07-23T08:55:53;33.50;63.80
21284;DHT22;44065;43.150;23.652;2022-07-23T08:58:20;33.70;60.60
21284;DHT22;44065;43.150;23.652;2022-07-23T09:00:46;33.80;59.80
21284;DHT22;44065;43.150;23.652;2022-07-23T09:03:34;33.80;61.00
21284;DHT22;44065;43.150;23.652;2022-07-23T09:06:00;33.90;60.70
21284;DHT22;44065;43.150;23.652;2022-07-23T09:08:41;33.90;61.10
21284;DHT22;44065;43.150;23.652;2022-07-23T09:11:12;34.00;61.70
21284;DHT22;44065;43.150;23.652;2022-07-23T09:13:52;34.20;61.50
21284;DHT22;44065;43.150;23.652;2022-07-23T09:16:27;34.20;62.10
21284;DHT22;44065;43.150;23.652;2022-07-23T09:18:59;34.30;63.10
21284;DHT22;44065;43.150;23.652;2022-07-23T09:21:27;34.30;61.40
21284;DHT22;44065;43.150;23.652;2022-07-23T09:29:05;34.60;63.30
21284;DHT22;44065;43.150;23.652;2022-07-23T09:34:21;34.80;60.20
21284;DHT22;44065;43.150;23.652;2022-07-23T09:36:48;34.80;60.10
21284;DHT22;44065;43.150;23.652;2022-07-23T09:39:16;34.70;61.20
